Time;durP1;ratioP1;P1;durP2;ratioP2;P2;SDS_P1;SDS_P2;PMS_P1;PMS_P2;Temp;Humidity;BMP_temperature;BMP_pressure;BME280_temperature;BME280_humidity;BME280_pressure;Samples;Min_cycle;Max_cycle;Signal;HPM_P1;HPM_P2
2021/08/24 00:02:08;;;;;;;19.25;10.85;;;;;;;22.90;48.91;100169.78;5107519;28;20027;-22
2021/08/24 00:04:33;;;;;;;16.90;10.10;;;;;;;23.08;48.66;100179.81;5107335;28;20028;-22
2021/08/24 00:06:59;;;;;;;22.45;10.82;;;;;;;23.47;47.32;100195.66;5107667;28;20035;-22
2021/08/24 00:09:24;;;;;;;17.58;10.18;;;;;;;23.37;47.48;100179.53;5107460;28;20407;-22
2021/08/24 00:11:50;;;;;;;17.17;9.93;;;;;;;23.32;47.63;100195.19;5107819;28;20031;-22
2021/08/24 00:14:15;;;;;;;20.27;11.05;;;;;;;22.48;49.98;100190.59;5107154;28;20031;-23
2021/08/24 00:16:41;;;;;;;16.60;9.82;;;;;;;22.42;49.86;100168.13;5107655;28;20024;-22
2021/08/24 00:19:10;;;;;;;15.75;9.77;;;;;;;22.94;48.95;100192.53;5107625;28;20727;-22
2021/08/24 00:21:39;;;;;;;17.15;10.27;;;;;;;23.10;48.35;100185.75;5110309;28;20016;-22
2021/08/24 00:24:05;;;;;;;18.83;10.63;;;;;;;23.14;48.07;100186.78;5113873;28;20037;-22
2021/08/24 00:26:30;;;;;;;13.45;9.63;;;;;;;23.12;48.36;100175.38;5114492;28;20027;-22
2021/08/24 00:28:55;;;;;;;16.58;10.20;;;;;;;22.46;49.90;100161.78;5096076;28;20547;-22
2021/08/24 00:31:21;;;;;;;13.18;8.95;;;;;;;22.01;51.22;100157.81;5114386;28;20038;-22
2021/08/24 00:33:46;;;;;;;12.30;7.85;;;;;;;21.85;51.85;100168.88;5114198;28;20028;-22
2021/08/24 00:36:13;;;;;;;13.95;8.30;;;;;;;22.53;50.28;100176.91;5113987;28;20114;-22
2021/08/24 00:38:39;;;;;;;15.27;8.83;;;;;;;22.87;49.00;100166.53;5114243;28;20087;-22
2021/08/24 00:41:04;;;;;;;14.18;8.82;;;;;;;23.09;48.74;100173.28;5114325;28;20106;-23
2021/08/24 00:43:31;;;;;;;14.38;8.02;;;;;;;22.38;50.46;100176.03;5113977;28;20085;-22
2021/08/24 00:46:16;;;;;;;11.85;7.82;;;;;;;22.02;50.77;100162.94;5095629;28;20027;-22
2021/08/24 00:48:42;;;;;;;13.57;8.35;;;;;;;21.72;52.48;100172.31;5098665;28;20023;-22
2021/08/24 00:51:07;;;;;;;10.40;7.80;;;;;;;21.99;51.33;100170.88;5079173;28;20490;-22
2021/08/24 00:53:33;;;;;;;15.77;8.27;;;;;;;22.34;50.57;100168.78;5114375;28;20515;-22
2021/08/24 00:56:00;;;;;;;9.52;7.35;;;;;;;22.74;49.34;100177.38;5078963;28;20097;-22
2021/08/24 00:58:25;;;;;;;13.05;7.57;;;;;;;22.96;48.33;100174.03;5095228;28;20038;-22
2021/08/24 01:00:51;;;;;;;14.18;7.78;;;;;;;22.78;48.77;100168.34;5095713;28;20048;-22
2021/08/24 01:03:21;;;;;;;12.68;8.38;;;;;;;22.70;48.80;100150.00;5113862;28;20027;-22
2021/08/24 01:05:48;;;;;;;11.18;7.53;;;;;;;22.70;48.90;100152.72;5095623;28;20501;-22
2021/08/24 01:08:39;;;;;;;12.15;7.45;;;;;;;22.84;48.94;100172.59;5078749;28;20082;-22
2021/08/24 01:11:07;;;;;;;11.20;7.82;;;;;;;22.82;48.92;100165.81;5098473;28;20025;-23
2021/08/24 01:13:35;;;;;;;12.68;7.63;;;;;;;22.58;48.87;100158.63;5095836;28;20897;-22
2021/08/24 01:16:07;;;;;;;13.43;8.15;;;;;;;22.75;48.52;100163.50;5095984;28;20734;-22
2021/08/24 01:18:38;;;;;;;10.73;7.07;;;;;;;22.62;49.20;100169.72;5096153;28;20422;-22
2021/08/24 01:21:27;;;;;;;10.30;6.60;;;;;;;22.70;48.84;100169.03;5113908;28;20031;-22
2021/08/24 01:24:03;;;;;;;12.23;7.22;;;;;;;22.67;48.57;100167.69;5102726;28;20115;-22
2021/08/24 01:26:44;;;;;;;12.27;7.43;;;;;;;22.59;49.12;100154.78;5079010;28;20019;-24
2021/08/24 01:29:35;;;;;;;14.40;7.95;;;;;;;22.45;48.82;100152.03;5113812;28;20114;-22
2021/08/24 01:32:05;;;;;;;13.75;8.85;;;;;;;21.69;49.86;100142.22;5097225;28;20036;-22
2021/08/24 01:35:06;;;;;;;13.30;8.48;;;;;;;20.76;52.59;100148.63;5091433;28;20535;-22
2021/08/24 01:37:50;;;;;;;14.98;8.80;;;;;;;20.98;52.51;100150.03;5095189;28;20402;-22
2021/08/24 01:40:18;;;;;;;14.00;8.50;;;;;;;20.57;53.25;100144.94;5075728;28;20054;-22
2021/08/24 01:42:43;;;;;;;13.80;9.95;;;;;;;20.66;53.51;100156.84;5075499;28;20031;-22
2021/08/24 01:45:16;;;;;;;12.70;9.07;;;;;;;20.21;55.58;100139.81;5110166;28;20492;-22
2021/08/24 01:47:42;;;;;;;12.15;8.05;;;;;;;19.80;56.94;100154.38;5093180;28;20035;-22
2021/08/24 01:50:30;;;;;;;12.98;7.50;;;;;;;19.41;58.30;100146.94;5110371;28;20106;-22
2021/08/24 01:53:06;;;;;;;11.40;7.88;;;;;;;19.52;58.64;100139.59;5094524;28;20403;-22
2021/08/24 01:55:33;;;;;;;12.13;7.97;;;;;;;19.51;59.06;100140.66;5093460;28;20078;-22
2021/08/24 01:58:01;;;;;;;10.60;7.95;;;;;;;19.61;58.16;100146.03;5091948;28;20027;-22
2021/08/24 02:00:27;;;;;;;12.02;8.15;;;;;;;19.08;59.63;100137.53;5088318;28;20056;-22
2021/08/24 02:02:57;;;;;;;10.63;8.48;;;;;;;19.18;59.65;100137.53;5088358;28;20575;-22
2021/08/24 02:05:28;;;;;;;12.23;8.80;;;;;;;19.37;59.12;100139.63;5088269;28;20031;-22
2021/08/24 02:08:00;;;;;;;11.50;8.43;;;;;;;18.54;61.40;100116.53;5071842;28;20397;-22
2021/08/24 02:10:25;;;;;;;12.48;8.48;;;;;;;18.86;60.57;100117.06;5088518;28;20488;-22
2021/08/24 02:12:52;;;;;;;18.77;10.90;;;;;;;19.24;60.45;100128.31;5089770;28;20155;-23
2021/08/24 02:15:19;;;;;;;15.80;9.88;;;;;;;18.44;62.70;100128.13;5089600;28;20032;-22
2021/08/24 02:17:46;;;;;;;13.82;10.00;;;;;;;18.00;63.81;100125.91;5089455;28;20035;-22
2021/08/24 02:20:23;;;;;;;12.27;7.80;;;;;;;17.64;63.19;100115.78;5087707;28;20032;-22
2021/08/24 02:22:50;;;;;;;12.00;8.27;;;;;;;17.46;64.04;100111.69;5071274;28;20036;-22
2021/08/24 02:25:36;;;;;;;15.57;9.00;;;;;;;17.18;65.31;100112.09;5071737;28;20270;-22
2021/08/24 02:28:11;;;;;;;15.48;8.85;;;;;;;17.35;64.41;100117.31;5071187;28;20055;-22
2021/08/24 02:30:44;;;;;;;12.68;9.32;;;;;;;17.92;64.68;100118.31;5071725;28;20036;-22
2021/08/24 02:33:10;;;;;;;15.45;8.63;;;;;;;17.91;64.15;100114.03;5071732;28;20024;-22
2021/08/24 02:35:40;;;;;;;15.00;10.02;;;;;;;17.54;65.71;100113.06;5088300;28;20097;-22
2021/08/24 02:38:12;;;;;;;16.92;8.93;;;;;;;17.29;65.31;100112.97;5071110;28;20032;-22
2021/08/24 02:40:58;;;;;;;15.65;9.35;;;;;;;17.25;65.02;100105.38;5088924;28;20043;-22
2021/08/24 02:43:39;;;;;;;17.15;9.52;;;;;;;17.39;64.91;100108.44;5087418;28;20032;-22
2021/08/24 02:46:46;;;;;;;27.88;13.77;;;;;;;18.28;63.73;100119.19;5088408;28;20039;-22
2021/08/24 02:49:17;;;;;;;26.23;16.50;;;;;;;18.67;62.69;100113.25;5006349;28;20033;-22
2021/08/24 02:51:44;;;;;;;29.17;18.45;;;;;;;17.92;64.06;100102.97;4990360;28;20093;-22
2021/08/24 02:54:20;;;;;;;20.57;11.93;;;;;;;17.20;65.07;100099.16;5049790;28;20067;-22
2021/08/24 02:56:46;;;;;;;14.02;9.48;;;;;;;16.65;65.88;100101.22;5087359;28;20027;-21
2021/08/24 02:59:11;;;;;;;18.20;10.73;;;;;;;16.53;65.22;100090.66;5097193;28;20055;-23
2021/08/24 03:01:37;;;;;;;47.35;13.25;;;;;;;16.70;65.11;100112.03;5108541;28;20059;-22
2021/08/24 03:04:03;;;;;;;32.13;10.40;;;;;;;16.45;65.70;100102.69;5108407;28;20055;-22
2021/08/24 03:06:29;;;;;;;16.63;9.50;;;;;;;16.46;65.19;100111.56;5090585;28;20027;-22
2021/08/24 03:08:54;;;;;;;12.13;8.18;;;;;;;16.35;65.83;100118.75;5090573;28;20027;-22
2021/08/24 03:11:21;;;;;;;12.70;8.82;;;;;;;16.22;66.42;100113.78;5108628;28;20028;-22
2021/08/24 03:14:15;;;;;;;11.30;8.53;;;;;;;16.31;66.46;100114.94;5073580;28;20035;-23
2021/08/24 03:16:43;;;;;;;12.90;8.57;;;;;;;16.42;66.60;100094.31;5074547;28;20381;-22
2021/08/24 03:19:12;;;;;;;14.27;8.95;;;;;;;16.63;66.71;100112.25;5108541;28;20031;-22
2021/08/24 03:21:37;;;;;;;16.48;10.13;;;;;;;16.64;66.94;100099.59;5090081;28;20032;-22
2021/08/24 03:24:04;;;;;;;13.18;9.35;;;;;;;16.60;67.14;100117.34;5073268;28;20023;-22
2021/08/24 03:26:34;;;;;;;14.80;9.98;;;;;;;16.53;67.26;100100.56;5073230;28;20146;-22
2021/08/24 03:29:05;;;;;;;26.27;11.00;;;;;;;16.69;67.09;100102.31;5090363;28;20024;-22
2021/08/24 03:31:31;;;;;;;19.75;10.30;;;;;;;16.81;66.55;100102.97;5108142;28;20430;-22
2021/08/24 03:33:56;;;;;;;24.50;10.80;;;;;;;16.78;66.81;100113.44;5073174;28;20024;-22
2021/08/24 03:36:21;;;;;;;17.88;10.50;;;;;;;16.72;66.89;100099.13;5108202;28;20136;-22
2021/08/24 03:38:47;;;;;;;18.98;11.52;;;;;;;16.83;67.57;100117.00;5108084;28;20027;-22
2021/08/24 03:41:12;;;;;;;22.30;12.57;;;;;;;16.65;68.39;100110.13;5107870;28;20038;-22
2021/08/24 03:43:38;;;;;;;77.50;18.02;;;;;;;16.55;69.26;100093.88;5107947;28;20028;-22
2021/08/24 03:46:04;;;;;;;16.25;11.73;;;;;;;16.54;69.91;100123.75;5107741;28;20023;-22
2021/08/24 03:48:29;;;;;;;16.33;11.10;;;;;;;16.94;69.00;100120.59;5108041;28;20027;-22
2021/08/24 03:50:55;;;;;;;17.27;11.30;;;;;;;17.15;68.51;100124.19;5107910;28;20483;-22
2021/08/24 03:53:20;;;;;;;17.27;11.80;;;;;;;17.67;66.65;100123.38;5107920;28;20036;-22
2021/08/24 03:55:46;;;;;;;16.25;11.77;;;;;;;17.52;67.20;100119.81;5107417;28;20032;-22
2021/08/24 03:58:12;;;;;;;15.93;11.25;;;;;;;17.55;66.80;100125.47;5107366;28;20072;-23
2021/08/24 04:00:41;;;;;;;17.13;11.35;;;;;;;18.06;65.37;100127.53;5107479;28;20046;-23
2021/08/24 04:03:06;;;;;;;16.10;11.27;;;;;;;17.61;66.39;100120.91;5089769;28;20380;-22
2021/08/24 04:05:32;;;;;;;16.38;11.90;;;;;;;17.18;67.96;100117.47;5107836;28;20767;-22
2021/08/24 04:07:57;;;;;;;18.77;12.15;;;;;;;17.04;68.55;100119.81;5107656;28;20396;-22
2021/08/24 04:10:23;;;;;;;17.80;11.80;;;;;;;16.89;68.85;100119.72;5107301;28;20081;-23
2021/08/24 04:12:48;;;;;;;16.38;10.40;;;;;;;16.62;68.04;100116.00;5107966;28;20036;-22
2021/08/24 04:15:14;;;;;;;15.23;10.07;;;;;;;16.71;67.01;100108.25;5107617;28;20035;-23
2021/08/24 04:17:39;;;;;;;15.52;10.90;;;;;;;16.83;67.41;100114.28;5107919;28;20040;-22
2021/08/24 04:20:06;;;;;;;14.38;10.07;;;;;;;16.61;67.67;100102.78;5107282;28;20503;-22
2021/08/24 04:22:32;;;;;;;15.98;9.88;;;;;;;16.66;68.25;100114.41;5107487;28;20059;-22
2021/08/24 04:24:57;;;;;;;12.90;9.82;;;;;;;16.73;68.46;100113.38;5089241;28;20423;-22
2021/08/24 04:27:23;;;;;;;22.95;9.50;;;;;;;16.75;68.30;100120.13;5107424;28;20490;-22
2021/08/24 04:29:48;;;;;;;14.85;9.35;;;;;;;16.63;68.72;100112.25;5107406;28;20032;-22
2021/08/24 04:32:16;;;;;;;15.48;10.15;;;;;;;16.80;68.78;100122.88;5107335;28;20057;-22
2021/08/24 04:34:41;;;;;;;16.05;9.80;;;;;;;17.22;66.88;100122.09;5072637;28;20095;-22
2021/08/24 04:37:06;;;;;;;15.98;10.68;;;;;;;18.05;64.66;100125.94;5107442;28;20477;-23
2021/08/24 04:39:32;;;;;;;19.15;11.50;;;;;;;18.01;64.55;100120.25;5107428;28;20024;-22
2021/08/24 04:41:57;;;;;;;17.77;11.80;;;;;;;18.11;64.80;100130.25;5107332;28;20030;-22
2021/08/24 04:44:23;;;;;;;18.63;12.18;;;;;;;18.43;63.48;100116.53;5107013;28;20028;-22
2021/08/24 04:46:48;;;;;;;18.13;11.60;;;;;;;19.31;60.70;100132.63;5107294;28;20027;-23
2021/08/24 04:49:14;;;;;;;28.95;11.60;;;;;;;20.03;58.55;100141.28;5107324;28;20028;-22
2021/08/24 04:51:39;;;;;;;16.42;10.65;;;;;;;19.58;59.49;100113.34;5107135;28;20031;-22
2021/08/24 04:54:05;;;;;;;16.40;10.82;;;;;;;19.55;60.07;100125.50;5107088;28;20028;-22
2021/08/24 04:56:30;;;;;;;15.35;11.25;;;;;;;19.67;59.42;100120.56;5107314;28;20024;-22
2021/08/24 04:58:56;;;;;;;16.25;11.13;;;;;;;20.06;58.45;100125.28;5106888;28;20113;-22
2021/08/24 05:01:21;;;;;;;16.83;11.13;;;;;;;20.23;57.64;100126.81;5107144;28;20043;-22
2021/08/24 05:03:46;;;;;;;15.05;9.95;;;;;;;20.30;57.50;100121.88;5107157;28;20445;-22
2021/08/24 05:06:12;;;;;;;19.27;12.13;;;;;;;20.38;57.28;100121.25;5107020;28;20032;-22
2021/08/24 05:08:37;;;;;;;17.75;12.50;;;;;;;20.18;57.60;100127.63;5109975;28;20088;-22
2021/08/24 05:11:03;;;;;;;16.15;10.65;;;;;;;20.45;56.93;100127.19;5110865;28;20092;-22
2021/08/24 05:13:28;;;;;;;26.05;14.93;;;;;;;20.52;56.80;100126.03;5110879;28;20506;-22
2021/08/24 05:15:54;;;;;;;17.48;11.90;;;;;;;19.98;57.96;100119.63;5111199;28;20368;-22
2021/08/24 05:18:19;;;;;;;46.72;26.98;;;;;;;20.06;58.73;100135.28;5110818;28;20039;-22
2021/08/24 05:20:45;;;;;;;23.05;15.95;;;;;;;19.96;58.72;100127.22;5110602;28;20821;-22
2021/08/24 05:23:10;;;;;;;29.40;20.38;;;;;;;19.90;58.67;100110.22;5110559;28;20019;-22
2021/08/24 05:25:37;;;;;;;21.88;14.68;;;;;;;19.50;59.45;100122.84;5110718;28;20031;-22
2021/08/24 05:28:03;;;;;;;19.88;13.75;;;;;;;19.61;59.56;100135.22;5110307;28;20028;-22
2021/08/24 05:30:29;;;;;;;19.17;13.70;;;;;;;19.89;59.31;100141.06;5110846;28;20085;-22
2021/08/24 05:32:54;;;;;;;16.50;12.68;;;;;;;20.06;58.45;100130.72;5110839;28;20023;-22
2021/08/24 05:35:20;;;;;;;16.45;12.50;;;;;;;20.28;58.53;100137.59;5108877;28;20058;-22
2021/08/24 05:37:47;;;;;;;17.85;12.77;;;;;;;20.34;58.33;100132.94;5109482;28;20055;-22
2021/08/24 05:40:13;;;;;;;17.90;12.43;;;;;;;20.41;58.38;100126.13;5110480;28;20038;-22
2021/08/24 05:42:38;;;;;;;16.23;11.88;;;;;;;20.63;58.08;100138.44;5110389;28;20023;-22
2021/08/24 05:45:05;;;;;;;17.52;12.20;;;;;;;20.64;57.59;100123.81;5110353;28;20038;-22
2021/08/24 05:47:30;;;;;;;16.15;11.27;;;;;;;20.84;57.71;100134.47;5110333;28;20077;-22
2021/08/24 05:49:57;;;;;;;17.52;12.63;;;;;;;20.86;57.71;100118.72;5110103;28;20031;-22
2021/08/24 05:52:22;;;;;;;19.38;12.07;;;;;;;21.21;56.52;100132.19;5091971;28;20095;-22
2021/08/24 05:54:49;;;;;;;17.90;11.90;;;;;;;21.34;56.46;100120.63;5110147;28;20468;-22
2021/08/24 05:57:19;;;;;;;17.45;12.98;;;;;;;21.55;55.86;100137.50;5091861;28;20039;-22
2021/08/24 05:59:44;;;;;;;15.90;11.43;;;;;;;21.80;55.41;100121.97;5110098;28;20397;-22
2021/08/24 06:02:10;;;;;;;16.33;11.63;;;;;;;21.88;55.02;100126.75;5109726;28;20536;-22
2021/08/24 06:04:35;;;;;;;16.25;9.90;;;;;;;21.23;55.87;100125.38;5110250;28;20031;-22
2021/08/24 06:07:01;;;;;;;13.32;10.82;;;;;;;21.23;56.53;100130.81;5110121;28;20036;-22
2021/08/24 06:09:26;;;;;;;17.33;10.82;;;;;;;21.36;56.52;100129.28;5110125;28;20534;-22
2021/08/24 06:11:52;;;;;;;16.85;9.77;;;;;;;21.46;55.22;100131.13;5091587;28;20077;-22
2021/08/24 06:14:19;;;;;;;14.10;10.35;;;;;;;21.33;55.23;100126.34;5109731;28;20031;-22
2021/08/24 06:16:45;;;;;;;15.98;10.15;;;;;;;21.74;54.46;100123.16;5109668;28;20035;-22
2021/08/24 06:19:10;;;;;;;13.75;9.65;;;;;;;21.93;53.55;100115.84;5109015;28;20028;-22
2021/08/24 06:21:36;;;;;;;12.50;9.95;;;;;;;22.15;53.08;100111.72;5109368;28;20069;-22
2021/08/24 06:24:02;;;;;;;17.17;9.82;;;;;;;22.30;52.60;100118.88;5109372;28;20042;-22
2021/08/24 06:26:28;;;;;;;15.27;8.93;;;;;;;22.16;51.97;100127.72;5109836;28;20024;-22
2021/08/24 06:28:53;;;;;;;13.48;9.50;;;;;;;21.90;52.45;100121.84;5109529;28;20031;-22
2021/08/24 06:31:26;;;;;;;14.63;9.35;;;;;;;22.30;52.01;100127.81;5109712;28;20403;-22
2021/08/24 06:33:51;;;;;;;15.65;10.02;;;;;;;22.11;50.96;100107.97;5109252;28;20051;-22
2021/08/24 06:36:17;;;;;;;13.25;10.30;;;;;;;21.90;51.39;100124.56;5091321;28;20525;-22
2021/08/24 06:38:43;;;;;;;15.32;10.95;;;;;;;22.03;50.98;100125.75;5109436;28;20383;-22
2021/08/24 06:41:09;;;;;;;14.77;11.18;;;;;;;22.02;51.18;100119.50;5109332;28;20768;-22
2021/08/24 06:43:34;;;;;;;14.90;9.95;;;;;;;21.98;51.58;100104.09;5109577;28;20488;-22
2021/08/24 06:46:00;;;;;;;16.48;10.80;;;;;;;22.39;50.47;100117.91;5109196;28;20038;-22
2021/08/24 06:48:25;;;;;;;13.00;9.07;;;;;;;22.76;49.45;100109.91;5108818;28;20031;-22
2021/08/24 06:50:51;;;;;;;12.27;9.52;;;;;;;22.99;48.83;100110.88;5108920;28;20512;-22
2021/08/24 06:53:17;;;;;;;12.18;9.40;;;;;;;23.12;48.09;100107.38;5109026;28;20024;-22
2021/08/24 06:55:42;;;;;;;12.35;9.10;;;;;;;23.22;48.14;100111.81;5108984;28;20020;-22
2021/08/24 06:58:08;;;;;;;11.15;9.07;;;;;;;23.63;48.50;100116.44;5108875;28;20515;-22
2021/08/24 07:00:34;;;;;;;13.35;8.93;;;;;;;23.69;47.42;100103.53;5109001;28;20051;-22
2021/08/24 07:03:00;;;;;;;12.55;8.82;;;;;;;23.96;46.57;100103.47;5108899;28;20016;-22
2021/08/24 07:05:28;;;;;;;13.10;8.68;;;;;;;23.69;47.06;100098.88;5108415;28;20035;-22
2021/08/24 07:07:53;;;;;;;16.58;9.02;;;;;;;23.69;47.42;100106.25;5109142;28;20076;-22
2021/08/24 07:10:19;;;;;;;10.27;8.45;;;;;;;23.74;47.09;100096.06;5108823;28;20039;-22
2021/08/24 07:12:44;;;;;;;15.57;9.20;;;;;;;23.89;46.99;100114.00;5108651;28;20027;-22
2021/08/24 07:15:11;;;;;;;11.48;7.95;;;;;;;24.18;45.62;100107.34;5108674;28;20049;-22
2021/08/24 07:17:37;;;;;;;11.85;8.10;;;;;;;24.49;45.78;100103.84;5108424;28;20031;-22
2021/08/24 07:20:04;;;;;;;12.85;8.70;;;;;;;24.71;44.71;100111.25;5108471;28;20034;-22
2021/08/24 07:22:29;;;;;;;15.35;8.35;;;;;;;24.52;44.94;100098.63;5108175;28;20445;-22
2021/08/24 07:24:55;;;;;;;12.65;7.85;;;;;;;24.43;44.68;100087.63;5108732;28;20035;-22
2021/08/24 07:27:20;;;;;;;11.13;8.30;;;;;;;24.51;45.90;100096.22;5090322;28;20752;-22
2021/08/24 07:29:46;;;;;;;12.13;8.50;;;;;;;24.63;45.03;100093.72;5108348;28;20055;-22
2021/08/24 07:32:11;;;;;;;13.00;8.45;;;;;;;24.54;45.69;100090.94;5106890;28;20043;-22
2021/08/24 07:34:37;;;;;;;11.23;7.85;;;;;;;24.63;45.51;100091.78;5108313;28;20034;-22
2021/08/24 07:37:03;;;;;;;11.27;8.07;;;;;;;25.09;44.72;100097.94;5108151;28;20028;-22
2021/08/24 07:39:28;;;;;;;12.77;8.07;;;;;;;25.20;44.21;100091.06;5108015;28;20479;-22
2021/08/24 07:41:54;;;;;;;11.80;8.35;;;;;;;25.33;44.53;100077.66;5108156;28;20028;-22
2021/08/24 07:44:23;;;;;;;14.57;8.18;;;;;;;25.43;44.60;100088.25;5108220;28;20461;-22
2021/08/24 07:46:49;;;;;;;10.73;8.15;;;;;;;25.39;44.08;100070.91;5107866;28;20056;-22
2021/08/24 07:49:15;;;;;;;12.45;7.40;;;;;;;25.34;43.85;100082.78;5107856;28;20038;-22
2021/08/24 07:51:41;;;;;;;8.88;7.35;;;;;;;25.74;43.33;100088.13;5108079;28;20024;-21
2021/08/24 07:54:06;;;;;;;9.23;7.10;;;;;;;25.94;42.42;100083.22;5108034;28;20028;-22
2021/08/24 07:56:31;;;;;;;10.07;7.70;;;;;;;26.29;43.17;100089.44;5108025;28;20044;-22
2021/08/24 07:58:57;;;;;;;11.48;7.53;;;;;;;25.97;43.08;100083.38;5107714;28;20051;-22
2021/08/24 08:01:22;;;;;;;11.93;7.97;;;;;;;26.44;42.50;100097.16;5107580;28;20032;-22
2021/08/24 08:03:48;;;;;;;11.10;7.85;;;;;;;26.52;41.93;100089.25;5107692;28;20038;-22
2021/08/24 08:06:13;;;;;;;10.98;7.35;;;;;;;26.78;41.63;100073.59;5107727;28;20495;-22
2021/08/24 08:08:39;;;;;;;11.23;7.57;;;;;;;26.74;40.74;100085.50;5108087;28;20716;-22
2021/08/24 08:11:04;;;;;;;11.15;7.90;;;;;;;26.68;41.54;100078.63;5107760;28;20020;-22
2021/08/24 08:13:30;;;;;;;10.05;7.78;;;;;;;26.35;42.26;100079.94;5107593;28;20491;-22
2021/08/24 08:15:55;;;;;;;11.18;8.00;;;;;;;26.71;41.32;100086.97;5107573;28;20032;-22
2021/08/24 08:18:21;;;;;;;13.00;7.60;;;;;;;26.90;41.27;100088.53;5107300;28;20985;-22
2021/08/24 08:20:47;;;;;;;11.18;7.20;;;;;;;27.24;39.50;100071.97;5107474;28;20027;-22
2021/08/24 08:23:14;;;;;;;7.80;6.45;;;;;;;27.66;38.63;100073.94;5107732;28;20043;-22
2021/08/24 08:25:40;;;;;;;9.98;6.88;;;;;;;27.58;39.30;100063.84;5107483;28;20411;-22
2021/08/24 08:28:06;;;;;;;10.63;6.45;;;;;;;27.89;37.73;100058.00;5107313;28;20038;-22
2021/08/24 08:30:32;;;;;;;10.85;6.88;;;;;;;27.88;37.82;100080.25;5107838;28;20062;-22
2021/08/24 08:32:59;;;;;;;9.55;6.75;;;;;;;27.85;37.40;100073.50;5107533;28;20032;-22
2021/08/24 08:35:24;;;;;;;13.80;6.43;;;;;;;27.80;36.99;100071.72;5107604;28;20055;-22
2021/08/24 08:37:50;;;;;;;9.27;5.60;;;;;;;27.93;35.79;100066.34;5107653;28;20035;-22
2021/08/24 08:40:17;;;;;;;9.00;5.80;;;;;;;28.25;36.31;100064.75;5107112;28;20050;-22
2021/08/24 08:42:58;;;;;;;7.47;5.97;;;;;;;28.46;36.77;100061.94;5074315;28;20035;-22
2021/08/24 08:45:39;;;;;;;11.60;6.10;;;;;;;28.68;34.90;100049.78;5111550;28;20487;-22
2021/08/24 08:48:23;;;;;;;10.43;6.15;;;;;;;28.64;35.52;100057.91;5093025;28;20027;-22
2021/08/24 08:50:57;;;;;;;9.27;5.65;;;;;;;29.34;34.58;100064.44;5111557;28;20412;-22
2021/08/24 08:53:40;;;;;;;10.02;5.63;;;;;;;29.20;32.30;100059.34;5093107;28;20132;-22
2021/08/24 08:56:17;;;;;;;7.55;5.40;;;;;;;29.10;33.09;100041.34;5093010;28;20395;-22
2021/08/24 08:59:14;;;;;;;10.32;5.60;;;;;;;29.01;32.21;100033.25;5094526;28;20055;-22
2021/08/24 09:01:57;;;;;;;9.73;5.00;;;;;;;29.04;31.89;100037.22;5093295;28;20038;-22
2021/08/24 09:04:37;;;;;;;8.30;4.75;;;;;;;28.99;30.08;100048.44;5110869;28;20114;-22
2021/08/24 09:07:09;;;;;;;6.78;4.93;;;;;;;29.13;31.37;100034.38;5093856;28;20046;-22
2021/08/24 09:09:36;;;;;;;7.57;4.95;;;;;;;29.31;30.49;100043.19;5093540;28;20053;-22
2021/08/24 09:12:01;;;;;;;8.90;5.35;;;;;;;29.13;30.96;100043.41;5092756;28;20024;-22
2021/08/24 09:14:33;;;;;;;7.65;4.95;;;;;;;29.38;30.00;100027.72;5111094;28;20096;-22
2021/08/24 09:17:14;;;;;;;6.95;4.85;;;;;;;29.95;29.21;100038.78;5076198;28;20122;-22
2021/08/24 09:19:57;;;;;;;7.10;4.70;;;;;;;29.86;28.68;100027.94;5076438;28;20035;-22
2021/08/24 09:22:23;;;;;;;8.90;4.93;;;;;;;29.59;29.98;100021.25;5092194;28;20027;-22
2021/08/24 09:24:48;;;;;;;7.65;4.95;;;;;;;30.08;28.51;100039.50;5110826;28;20039;-22
2021/08/24 09:27:19;;;;;;;5.90;4.18;;;;;;;29.75;25.35;100033.16;5110972;28;20380;-22
2021/08/24 09:29:45;;;;;;;6.13;4.05;;;;;;;30.13;25.65;100025.53;5110614;28;20032;-22
2021/08/24 09:32:11;;;;;;;7.43;4.55;;;;;;;30.02;27.59;100017.78;5092228;28;20019;-22
2021/08/24 09:34:39;;;;;;;9.10;5.00;;;;;;;30.53;26.76;100016.38;5092202;28;20027;-22
2021/08/24 09:37:04;;;;;;;;;;;;;;;30.25;26.08;100022.69;5111103;28;20027;-22
2021/08/24 09:39:55;;;;;;;6.47;4.57;;;;;;;30.53;26.26;100016.38;5110367;28;19938;-22
2021/08/24 09:42:29;;;;;;;7.95;4.30;;;;;;;30.08;25.42;100003.75;5110240;28;20070;-22
2021/08/24 09:44:55;;;;;;;5.25;3.47;;;;;;;30.52;21.90;100014.75;5110644;28;20024;-22
2021/08/24 09:47:21;;;;;;;6.43;3.67;;;;;;;30.50;23.98;100014.31;5110448;28;20410;-22
2021/08/24 09:49:47;;;;;;;7.20;3.75;;;;;;;30.77;24.52;100010.69;5092071;28;20119;-22
2021/08/24 09:52:20;;;;;;;5.88;3.92;;;;;;;30.74;24.68;100002.31;5092161;28;20483;-22
2021/08/24 09:54:48;;;;;;;4.88;3.40;;;;;;;30.97;23.77;100002.50;5109149;28;20027;-22
2021/08/24 09:57:33;;;;;;;5.68;3.10;;;;;;;31.23;22.15;99997.19;5110137;28;20042;-22
2021/08/24 10:00:06;;;;;;;5.00;3.10;;;;;;;31.02;22.86;99981.00;5110098;28;20060;-22
2021/08/24 10:02:40;;;;;;;6.25;3.67;;;;;;;31.25;22.36;99994.06;5092514;28;20031;-22
2021/08/24 10:05:07;;;;;;;5.35;3.83;;;;;;;31.27;22.77;99993.72;5109624;28;20038;-21
2021/08/24 10:07:32;;;;;;;6.30;3.67;;;;;;;31.58;22.20;99979.81;5110112;28;20023;-21
2021/08/24 10:09:58;;;;;;;6.00;3.88;;;;;;;31.90;20.16;99963.13;5109945;28;20544;-21
2021/08/24 10:12:27;;;;;;;6.00;3.60;;;;;;;31.85;22.84;99966.16;5109546;28;20034;-22
2021/08/24 10:14:52;;;;;;;6.20;3.88;;;;;;;31.75;22.55;99977.78;5109666;28;20119;-22
2021/08/24 10:17:34;;;;;;;7.53;4.03;;;;;;;31.92;23.50;99974.59;5091464;28;20039;-21
2021/08/24 10:20:00;;;;;;;5.72;3.63;;;;;;;32.37;21.60;99969.47;5091540;28;20040;-22
2021/08/24 10:22:38;;;;;;;6.20;3.60;;;;;;;32.88;20.02;99965.56;5074780;28;20514;-22
2021/08/24 10:25:08;;;;;;;;;;;;;;;32.05;21.57;99961.44;5092211;28;20450;-22
2021/08/24 10:27:44;;;;;;;5.72;3.70;;;;;;;31.98;22.18;99964.84;5109418;28;20017;-21
2021/08/24 10:30:15;;;;;;;5.90;3.57;;;;;;;31.43;21.18;99953.91;5090967;28;20039;-22
2021/08/24 10:32:53;;;;;;;6.65;3.28;;;;;;;32.02;20.91;99948.41;5109633;28;20118;-21
2021/08/24 10:35:26;;;;;;;6.60;3.45;;;;;;;32.32;20.19;99945.72;5075971;28;20034;-22
2021/08/24 10:37:52;;;;;;;6.82;3.22;;;;;;;31.93;20.32;99951.34;5090942;28;20069;-22
2021/08/24 10:40:20;;;;;;;6.68;3.15;;;;;;;31.43;21.40;99944.84;5090566;28;20089;-22
2021/08/24 10:43:15;;;;;;;4.55;3.20;;;;;;;32.26;20.56;99946.41;5109250;28;20111;-22
2021/08/24 10:45:42;;;;;;;4.88;3.17;;;;;;;32.33;21.96;99950.09;5109325;28;20031;-21
2021/08/24 10:48:19;;;;;;;7.15;3.88;;;;;;;32.37;20.35;99945.44;5090684;28;20027;-21
2021/08/24 10:51:02;;;;;;;7.25;3.78;;;;;;;32.62;20.89;99947.81;5109196;28;20085;-22
2021/08/24 10:53:51;;;;;;;5.45;3.75;;;;;;;32.70;21.24;99943.22;5109151;28;20027;-21
2021/08/24 10:56:45;;;;;;;5.68;3.83;;;;;;;33.32;21.70;99931.81;5090741;28;20027;-21
2021/08/24 10:59:30;;;;;;;6.22;3.65;;;;;;;33.00;20.45;99921.16;5087229;28;20052;-22
2021/08/24 11:02:02;;;;;;;5.13;3.40;;;;;;;32.86;20.63;99930.03;5087673;28;20035;-22
2021/08/24 11:04:55;;;;;;;6.03;3.90;;;;;;;33.00;20.36;99940.47;5086992;28;20036;-22
2021/08/24 11:07:58;;;;;;;7.93;3.70;;;;;;;33.33;20.68;99925.91;5088500;28;20484;-22
2021/08/24 11:10:35;;;;;;;5.20;3.53;;;;;;;33.54;20.19;99932.88;5087417;28;20032;-21
2021/08/24 11:13:19;;;;;;;6.68;3.67;;;;;;;33.75;18.88;99924.03;5088452;28;20031;-22
2021/08/24 11:15:54;;;;;;;6.38;3.55;;;;;;;34.39;18.42;99921.88;5088628;28;20423;-21
2021/08/24 11:18:25;;;;;;;7.40;4.10;;;;;;;33.66;19.85;99898.66;5086999;28;20020;-22
2021/08/24 11:21:21;;;;;;;5.72;3.92;;;;;;;33.43;21.41;99902.34;5086959;28;20028;-22
2021/08/24 11:23:58;;;;;;;5.57;3.45;;;;;;;32.52;22.19;99915.28;5050013;28;20040;-22
2021/08/24 11:26:28;;;;;;;6.13;4.22;;;;;;;33.09;20.28;99915.34;5087859;28;20032;-21
2021/08/24 11:29:29;;;;;;;8.68;3.63;;;;;;;33.56;19.77;99917.47;5087153;28;20032;-21
2021/08/24 11:32:12;;;;;;;5.60;3.85;;;;;;;34.09;19.39;99908.16;5088176;28;20035;-21